createdAt,value
2022-11-05T00:02:43.482Z,7.95
2022-11-05T00:05:33.185Z,7.47
2022-11-05T00:08:28.162Z,7.95
2022-11-05T00:10:56.765Z,7.82
2022-11-05T00:13:46.687Z,7.78
2022-11-05T00:16:42.985Z,6.70
2022-11-05T00:19:13.514Z,7.53
2022-11-05T00:22:03.536Z,7.30
2022-11-05T00:24:51.866Z,7.22
2022-11-05T00:27:24.863Z,6.22
2022-11-05T00:29:54.429Z,6.75
2022-11-05T00:32:23.717Z,7.00
2022-11-05T00:34:55.399Z,6.53
2022-11-05T00:37:22.998Z,6.75
2022-11-05T00:39:50.989Z,6.65
2022-11-05T00:42:37.625Z,7.13
2022-11-05T00:45:07.433Z,6.75
2022-11-05T00:48:01.894Z,6.90
2022-11-05T00:50:31.184Z,6.47
2022-11-05T00:53:07.058Z,6.30
2022-11-05T00:55:42.005Z,6.82
2022-11-05T00:58:21.362Z,7.15
2022-11-05T01:01:00.746Z,6.80
2022-11-05T01:03:35.215Z,6.65
2022-11-05T01:06:14.116Z,6.68
2022-11-05T01:08:45.845Z,6.22
2022-11-05T01:11:40.265Z,6.47
2022-11-05T01:14:16.007Z,6.18
2022-11-05T01:16:45.561Z,6.43
2022-11-05T01:19:13.814Z,6.25
2022-11-05T01:21:42.194Z,6.95
2022-11-05T01:24:11.003Z,7.07
2022-11-05T01:26:38.530Z,7.70
2022-11-05T01:29:06.299Z,7.07
2022-11-05T01:31:33.978Z,6.90
2022-11-05T01:34:02.913Z,6.20
2022-11-05T01:36:30.634Z,6.40
2022-11-05T01:39:00.874Z,6.07
2022-11-05T01:41:30.041Z,6.40
2022-11-05T01:43:59.988Z,6.82
2022-11-05T01:46:46.440Z,6.50
2022-11-05T01:49:30.080Z,7.80
2022-11-05T01:52:02.057Z,6.90
2022-11-05T01:54:33.011Z,6.45
2022-11-05T01:57:07.935Z,6.28
2022-11-05T01:59:43.275Z,6.68
2022-11-05T02:02:11.027Z,6.88
2022-11-05T02:05:00.830Z,6.57
2022-11-05T02:07:31.265Z,6.78
2022-11-05T02:10:14.926Z,7.20
2022-11-05T02:12:47.440Z,7.53
2022-11-05T02:15:25.042Z,6.90
2022-11-05T02:20:59.798Z,6.55
2022-11-05T02:23:37.854Z,7.22
2022-11-05T02:26:47.082Z,6.75
2022-11-05T02:29:56.330Z,8.15
2022-11-05T02:33:01.196Z,7.90
2022-11-05T02:35:57.853Z,7.68
2022-11-05T02:38:58.793Z,7.13
2022-11-05T02:42:02.008Z,6.82
2022-11-05T02:44:55.863Z,6.65
2022-11-05T02:47:33.903Z,6.97
2022-11-05T02:50:22.671Z,6.40
2022-11-05T02:53:27.627Z,6.35
2022-11-05T02:56:15.849Z,6.07
2022-11-05T02:58:44.823Z,6.20
2022-11-05T03:01:14.186Z,7.03
2022-11-05T03:03:51.702Z,6.60
2022-11-05T03:07:04.074Z,5.95
2022-11-05T03:10:11.070Z,6.45
2022-11-05T03:12:57.166Z,6.78
2022-11-05T03:15:42.743Z,6.70
2022-11-05T03:18:36.821Z,6.53
2022-11-05T03:21:42.209Z,6.82
2022-11-05T03:24:23.014Z,6.25
2022-11-05T03:27:08.810Z,6.43
2022-11-05T03:29:54.011Z,7.25
2022-11-05T03:32:26.256Z,6.72
2022-11-05T03:35:03.826Z,6.35
2022-11-05T03:37:39.837Z,7.25
2022-11-05T03:40:12.240Z,7.25
2022-11-05T03:42:47.814Z,8.85
2022-11-05T03:45:23.986Z,7.18
2022-11-05T03:48:02.561Z,6.93
2022-11-05T03:50:37.152Z,6.50
2022-11-05T03:53:23.565Z,7.18
2022-11-05T03:56:09.131Z,7.05
2022-11-05T03:58:45.829Z,6.45
2022-11-05T04:01:14.809Z,7.35
2022-11-05T04:03:43.575Z,6.90
2022-11-05T04:06:29.888Z,7.38
2022-11-05T04:09:16.365Z,6.90
2022-11-05T04:12:02.734Z,6.97
2022-11-05T04:14:35.267Z,7.22
2022-11-05T04:17:11.992Z,6.45
2022-11-05T04:20:03.905Z,8.15
2022-11-05T04:22:52.792Z,7.75
2022-11-05T04:25:23.117Z,8.30
2022-11-05T04:27:52.010Z,8.75
2022-11-05T04:30:22.816Z,7.57
2022-11-05T04:33:15.312Z,8.18
2022-11-05T04:35:49.693Z,8.93
2022-11-05T04:38:20.087Z,8.27
2022-11-05T04:40:49.720Z,9.15
2022-11-05T04:43:19.679Z,8.88
2022-11-05T04:45:50.525Z,8.55
2022-11-05T04:48:19.264Z,7.00
2022-11-05T04:50:53.308Z,7.68
2022-11-05T04:53:22.920Z,6.97
2022-11-05T04:55:52.623Z,6.53
2022-11-05T04:58:21.634Z,6.15
2022-11-05T05:00:56.839Z,6.88
2022-11-05T05:03:24.448Z,7.50
2022-11-05T05:05:54.021Z,12.23
2022-11-05T05:08:22.104Z,13.95
2022-11-05T05:10:56.854Z,15.70
2022-11-05T05:13:26.947Z,21.95
2022-11-05T05:15:55.957Z,22.48
2022-11-05T05:18:29.350Z,17.23
2022-11-05T05:21:19.796Z,15.35
2022-11-05T05:23:50.822Z,13.65
2022-11-05T05:26:19.173Z,12.20
2022-11-05T05:28:47.818Z,11.33
2022-11-05T05:31:15.412Z,7.10
2022-11-05T05:33:43.312Z,6.83
2022-11-05T05:36:12.885Z,7.43
2022-11-05T05:38:40.877Z,6.65
2022-11-05T05:41:08.463Z,14.40
2022-11-05T05:43:36.441Z,13.52
2022-11-05T05:46:11.989Z,14.73
2022-11-05T05:48:46.784Z,14.98
2022-11-05T05:51:17.664Z,15.85
2022-11-05T05:53:50.786Z,16.20
2022-11-05T05:56:19.261Z,20.08
2022-11-05T05:58:48.309Z,19.15
2022-11-05T06:01:19.545Z,24.02
2022-11-05T06:03:55.711Z,21.98
2022-11-05T06:06:27.737Z,19.67
2022-11-05T06:09:00.797Z,18.13
2022-11-05T06:11:32.964Z,17.67
2022-11-05T06:16:38.956Z,13.50
2022-11-05T06:19:07.682Z,14.50
2022-11-05T06:21:42.731Z,12.85
2022-11-05T06:24:10.536Z,11.82
2022-11-05T06:26:43.108Z,10.88
2022-11-05T06:29:12.941Z,10.55
2022-11-05T06:31:41.434Z,10.18
2022-11-05T06:34:11.987Z,10.90
2022-11-05T06:36:40.277Z,10.82
2022-11-05T06:39:12.905Z,9.75
2022-11-05T06:42:16.703Z,9.15
2022-11-05T06:44:35.885Z,7.93
2022-11-05T06:47:05.886Z,13.73
2022-11-05T06:49:33.533Z,17.02
2022-11-05T06:52:01.102Z,11.52
2022-11-05T06:54:29.938Z,11.38
2022-11-05T06:59:25.405Z,9.85
2022-11-05T07:01:56.984Z,7.38
2022-11-05T07:04:25.418Z,8.43
2022-11-05T07:06:52.997Z,8.23
2022-11-05T07:09:21.071Z,8.90
2022-11-05T07:11:48.919Z,10.00
2022-11-05T07:14:17.473Z,10.95
2022-11-05T07:16:46.917Z,10.18
2022-11-05T07:19:16.496Z,10.40
2022-11-05T07:21:47.782Z,9.48
2022-11-05T07:24:16.906Z,8.38
2022-11-05T07:26:44.812Z,8.23
2022-11-05T07:29:12.632Z,9.70
2022-11-05T07:31:42.088Z,12.98
2022-11-05T07:34:09.878Z,19.65
2022-11-05T07:36:39.477Z,19.23
2022-11-05T07:39:10.173Z,10.43
2022-11-05T07:41:39.072Z,8.60
2022-11-05T07:44:07.247Z,9.05
2022-11-05T07:46:34.963Z,6.70
2022-11-05T07:49:09.922Z,5.95
2022-11-05T07:51:37.754Z,5.88
2022-11-05T07:54:06.257Z,9.35
2022-11-05T07:56:34.245Z,7.60
2022-11-05T07:59:01.930Z,5.78
2022-11-05T08:01:29.868Z,5.95
2022-11-05T08:03:57.428Z,6.55
2022-11-05T08:06:26.873Z,5.88
2022-11-05T08:08:54.346Z,6.13
2022-11-05T08:11:22.498Z,6.35
2022-11-05T08:16:19.436Z,7.20
2022-11-05T08:18:50.161Z,7.20
2022-11-05T08:21:17.920Z,7.93
2022-11-05T08:23:45.571Z,7.10
2022-11-05T08:26:13.480Z,7.78
2022-11-05T08:28:47.899Z,6.82
2022-11-05T08:31:18.046Z,6.70
2022-11-05T08:33:46.167Z,7.45
2022-11-05T08:36:13.817Z,7.03
2022-11-05T08:38:41.522Z,7.38
2022-11-05T08:41:09.317Z,7.78
2022-11-05T08:43:36.949Z,7.97
2022-11-05T08:46:04.522Z,8.13
2022-11-05T08:48:32.151Z,5.20
2022-11-05T08:51:01.874Z,3.53
2022-11-05T08:53:30.151Z,2.85
2022-11-05T08:55:59.372Z,2.47
2022-11-05T08:58:27.098Z,2.00
2022-11-05T09:00:58.964Z,2.38
2022-11-05T09:03:29.649Z,1.80
2022-11-05T09:05:57.201Z,1.92
2022-11-05T09:08:24.710Z,2.50
2022-11-05T09:10:52.434Z,2.70
2022-11-05T09:13:20.574Z,3.40
2022-11-05T09:15:50.908Z,3.85
2022-11-05T09:18:20.638Z,3.35
2022-11-05T09:20:48.629Z,3.80
2022-11-05T09:23:17.092Z,3.78
2022-11-05T09:25:45.449Z,3.80
2022-11-05T09:28:18.888Z,3.65
2022-11-05T09:30:49.764Z,2.83
2022-11-05T09:33:21.710Z,3.20
2022-11-05T09:35:49.363Z,3.72
2022-11-05T09:38:16.983Z,4.00
2022-11-05T09:41:28.473Z,3.55
2022-11-05T09:44:06.126Z,2.13
2022-11-05T09:46:59.457Z,2.40
2022-11-05T09:49:40.063Z,2.70
2022-11-05T09:52:18.708Z,2.17
2022-11-05T09:54:48.855Z,2.78
2022-11-05T09:57:24.609Z,2.78
2022-11-05T09:59:57.914Z,2.85
2022-11-05T10:02:33.625Z,2.10
2022-11-05T10:05:10.309Z,2.08
2022-11-05T10:07:47.601Z,2.22
2022-11-05T10:10:37.835Z,1.88
2022-11-05T10:13:48.804Z,2.10
2022-11-05T10:16:27.478Z,2.33
2022-11-05T10:19:06.462Z,2.20
2022-11-05T10:22:04.450Z,2.50
2022-11-05T10:24:23.150Z,2.30
2022-11-05T10:26:54.813Z,1.80
2022-11-05T10:29:33.175Z,2.00
2022-11-05T10:34:34.526Z,2.17
2022-11-05T10:37:02.478Z,1.80
2022-11-05T10:39:33.390Z,3.63
2022-11-05T10:42:37.634Z,2.42
2022-11-05T10:45:43.329Z,1.80
2022-11-05T10:48:49.148Z,2.40
2022-11-05T10:51:17.403Z,1.70
2022-11-05T10:54:01.537Z,2.25
2022-11-05T10:56:39.802Z,2.47
2022-11-05T10:59:23.656Z,2.05
2022-11-05T11:02:15.003Z,2.60
2022-11-05T11:04:43.457Z,2.33
2022-11-05T11:07:25.731Z,2.45
2022-11-05T11:09:53.954Z,3.53
2022-11-05T11:12:27.916Z,3.40
2022-11-05T11:15:13.842Z,3.97
2022-11-05T11:17:43.155Z,2.20
2022-11-05T11:20:33.301Z,2.15
2022-11-05T11:23:13.166Z,4.22
2022-11-05T11:25:53.600Z,3.03
2022-11-05T11:28:38.671Z,3.35
2022-11-05T11:31:14.861Z,2.40
2022-11-05T11:33:53.883Z,1.83
2022-11-05T11:36:32.897Z,1.95
2022-11-05T11:39:04.751Z,1.90
2022-11-05T11:41:44.054Z,2.70
2022-11-05T11:44:27.015Z,2.33
2022-11-05T11:47:02.029Z,2.72
2022-11-05T11:49:41.263Z,2.03
2022-11-05T11:52:32.513Z,2.88
2022-11-05T11:55:12.269Z,2.10
2022-11-05T11:57:51.207Z,1.90
2022-11-05T12:00:24.179Z,1.70
2022-11-05T12:03:21.865Z,3.40
2022-11-05T12:06:21.634Z,2.70
2022-11-05T12:09:01.946Z,4.53
2022-11-05T12:12:05.507Z,6.40
2022-11-05T12:15:02.652Z,6.22
2022-11-05T12:17:44.403Z,2.40
2022-11-05T12:20:36.130Z,2.80
2022-11-05T12:23:31.872Z,3.10
2022-11-05T12:26:34.750Z,2.60
2022-11-05T12:29:24.305Z,2.90
2022-11-05T12:32:05.287Z,2.55
2022-11-05T12:34:40.654Z,2.42
2022-11-05T12:37:33.756Z,2.35
2022-11-05T12:40:37.973Z,2.42
2022-11-05T12:43:36.178Z,3.35
2022-11-05T12:46:33.829Z,3.75
2022-11-05T12:49:45.774Z,3.88
2022-11-05T12:52:32.081Z,2.92
2022-11-05T12:55:19.033Z,3.60
2022-11-05T12:58:01.637Z,2.40
2022-11-05T13:00:33.095Z,1.73
2022-11-05T13:03:52.983Z,1.88
2022-11-05T13:06:40.365Z,3.05
2022-11-05T13:09:24.499Z,1.95
2022-11-05T13:12:06.759Z,2.97
2022-11-05T13:14:48.510Z,3.03
2022-11-05T13:17:25.317Z,2.40
2022-11-05T13:20:20.791Z,2.38
2022-11-05T13:23:00.031Z,6.28
2022-11-05T13:25:39.007Z,2.45
2022-11-05T13:28:38.304Z,4.03
2022-11-05T13:31:21.939Z,3.70
2022-11-05T13:33:56.805Z,9.10
2022-11-05T13:36:50.756Z,4.10
2022-11-05T13:39:23.958Z,5.47
2022-11-05T13:42:03.547Z,3.55
2022-11-05T13:45:16.741Z,4.55
2022-11-05T13:48:25.282Z,5.55
2022-11-05T13:51:08.886Z,11.23
2022-11-05T13:54:03.925Z,9.98
2022-11-05T13:57:20.810Z,3.30
2022-11-05T14:00:06.355Z,2.72
2022-11-05T14:03:06.921Z,2.83
2022-11-05T14:05:40.324Z,3.22
2022-11-05T14:08:24.217Z,2.88
2022-11-05T14:11:04.946Z,2.88
2022-11-05T14:13:43.851Z,3.40
2022-11-05T14:16:25.931Z,2.70
2022-11-05T14:19:19.779Z,2.30
2022-11-05T14:21:55.518Z,2.42
2022-11-05T14:24:44.252Z,2.20
2022-11-05T14:27:11.864Z,3.50
2022-11-05T14:29:47.927Z,2.45
2022-11-05T14:32:19.799Z,3.05
2022-11-05T14:35:18.052Z,3.45
2022-11-05T14:37:57.310Z,3.20
2022-11-05T14:40:38.268Z,2.50
2022-11-05T14:43:22.864Z,4.32
2022-11-05T14:46:06.328Z,3.60
2022-11-05T14:48:48.785Z,4.80
2022-11-05T14:51:33.635Z,4.05
2022-11-05T14:54:23.018Z,3.00
2022-11-05T14:56:56.384Z,2.90
2022-11-05T14:59:24.909Z,4.10
2022-11-05T15:02:01.731Z,3.13
2022-11-05T15:04:42.564Z,4.13
2022-11-05T15:07:10.014Z,5.85
2022-11-05T15:09:55.793Z,12.40
2022-11-05T15:12:46.717Z,8.88
2022-11-05T15:15:44.756Z,4.22
2022-11-05T15:18:30.748Z,5.90
2022-11-05T15:21:02.492Z,4.68
2022-11-05T15:23:43.292Z,4.43
2022-11-05T15:26:37.423Z,6.03
2022-11-05T15:29:19.208Z,3.80
2022-11-05T15:31:47.803Z,4.50
2022-11-05T15:34:30.249Z,7.07
2022-11-05T15:37:25.703Z,3.60
2022-11-05T15:39:55.428Z,5.45
2022-11-05T15:42:27.823Z,5.60
2022-11-05T15:45:00.214Z,6.35
2022-11-05T15:47:36.439Z,5.45
2022-11-05T15:50:15.094Z,6.63
2022-11-05T15:52:53.824Z,4.80
2022-11-05T15:58:01.091Z,4.93
2022-11-05T16:00:36.628Z,5.63
2022-11-05T16:03:24.744Z,4.05
2022-11-05T16:05:54.857Z,5.75
2022-11-05T16:11:01.095Z,5.07
2022-11-05T16:13:38.697Z,7.93
2022-11-05T16:19:03.731Z,9.00
2022-11-05T16:21:54.722Z,9.88
2022-11-05T16:24:28.211Z,10.15
2022-11-05T16:27:07.591Z,8.98
2022-11-05T16:29:47.507Z,10.40
2022-11-05T16:32:25.276Z,8.05
2022-11-05T16:35:04.988Z,8.48
2022-11-05T16:37:46.406Z,10.30
2022-11-05T16:40:23.901Z,10.32
2022-11-05T16:42:54.565Z,10.85
2022-11-05T16:45:25.371Z,10.07
2022-11-05T16:47:52.978Z,9.40
2022-11-05T16:50:30.199Z,11.47
2022-11-05T16:52:57.853Z,9.63
2022-11-05T16:55:25.666Z,9.38
2022-11-05T16:57:55.838Z,8.43
2022-11-05T17:00:25.597Z,13.90
2022-11-05T17:03:00.729Z,11.02
2022-11-05T17:05:31.637Z,10.65
2022-11-05T17:08:01.184Z,9.15
2022-11-05T17:10:29.510Z,9.10
2022-11-05T17:12:57.083Z,13.95
2022-11-05T17:15:31.612Z,13.70
2022-11-05T17:18:03.745Z,8.55
2022-11-05T17:20:44.953Z,6.90
2022-11-05T17:23:16.484Z,6.80
2022-11-05T17:25:49.165Z,7.85
2022-11-05T17:28:18.317Z,7.50
2022-11-05T17:30:52.176Z,9.60
2022-11-05T17:33:23.455Z,8.38
2022-11-05T17:35:52.706Z,12.85
2022-11-05T17:38:22.682Z,9.00
2022-11-05T17:40:51.064Z,7.10
2022-11-05T17:43:20.656Z,6.20
2022-11-05T17:45:51.919Z,8.32
2022-11-05T17:48:21.518Z,9.18
2022-11-05T17:50:51.047Z,8.80
2022-11-05T17:53:19.541Z,9.00
2022-11-05T17:58:17.693Z,7.07
2022-11-05T18:00:47.623Z,7.38
2022-11-05T18:03:21.142Z,10.82
2022-11-05T18:06:02.285Z,9.40
2022-11-05T18:08:30.859Z,10.13
2022-11-05T18:13:26.069Z,14.25
2022-11-05T18:15:54.532Z,10.27
2022-11-05T18:20:59.695Z,6.88
2022-11-05T18:23:28.289Z,9.80
2022-11-05T18:25:55.900Z,8.70
2022-11-05T18:28:24.493Z,10.32
2022-11-05T18:33:20.296Z,11.27
2022-11-05T18:35:48.961Z,10.68
2022-11-05T18:38:22.664Z,12.30
2022-11-05T18:40:52.395Z,18.38
2022-11-05T18:43:20.863Z,20.50
2022-11-05T18:45:57.118Z,12.93
2022-11-05T18:48:30.889Z,9.57
2022-11-05T18:51:02.050Z,11.03
2022-11-05T18:53:30.099Z,11.40
2022-11-05T18:55:57.829Z,9.93
2022-11-05T18:58:25.554Z,7.28
2022-11-05T19:00:55.711Z,6.07
2022-11-05T19:03:24.587Z,7.68
2022-11-05T19:05:54.723Z,5.78
2022-11-05T19:08:24.226Z,4.90
2022-11-05T19:10:53.424Z,9.45
2022-11-05T19:13:20.989Z,5.00
2022-11-05T19:15:48.687Z,5.88
2022-11-05T19:20:46.024Z,10.35
2022-11-05T19:23:15.690Z,7.95
2022-11-05T19:25:45.429Z,5.70
2022-11-05T19:28:15.431Z,7.32
2022-11-05T19:30:45.194Z,8.55
2022-11-05T19:33:12.781Z,5.03
2022-11-05T19:35:42.390Z,6.72
2022-11-05T19:38:10.567Z,6.03
2022-11-05T19:43:11.652Z,4.82
2022-11-05T19:45:45.269Z,5.28
2022-11-05T19:48:19.166Z,5.32
2022-11-05T19:50:47.538Z,4.63
2022-11-05T19:53:15.461Z,5.23
2022-11-05T19:55:45.582Z,4.57
2022-11-05T19:58:13.647Z,6.00
2022-11-05T20:00:45.211Z,6.80
2022-11-05T20:03:13.327Z,6.75
2022-11-05T20:05:41.578Z,6.63
2022-11-05T20:08:09.527Z,5.20
2022-11-05T20:10:39.853Z,5.20
2022-11-05T20:13:07.710Z,5.63
2022-11-05T20:15:41.810Z,6.32
2022-11-05T20:18:10.429Z,5.05
2022-11-05T20:20:42.059Z,5.65
2022-11-05T20:23:11.813Z,6.70
2022-11-05T20:25:39.774Z,6.80
2022-11-05T20:28:07.670Z,5.10
2022-11-05T20:30:40.544Z,6.88
2022-11-05T20:33:08.138Z,7.03
2022-11-05T20:35:39.813Z,9.88
2022-11-05T20:38:07.821Z,6.65
2022-11-05T20:40:35.480Z,6.93
2022-11-05T20:43:04.708Z,9.35
2022-11-05T20:45:32.333Z,8.98
2022-11-05T20:48:06.781Z,8.90
2022-11-05T20:50:36.654Z,8.88
2022-11-05T20:53:04.361Z,10.70
2022-11-05T20:55:32.369Z,14.93
2022-11-05T20:58:02.636Z,15.63
2022-11-05T21:00:32.512Z,18.38
2022-11-05T21:03:00.713Z,12.93
2022-11-05T21:05:34.213Z,16.00
2022-11-05T21:08:03.554Z,14.48
2022-11-05T21:10:38.455Z,13.88
2022-11-05T21:13:08.633Z,11.70
2022-11-05T21:15:36.329Z,10.73
2022-11-05T21:18:05.491Z,9.32
2022-11-05T21:20:33.091Z,7.90
2022-11-05T21:23:01.510Z,8.43
2022-11-05T21:27:56.481Z,8.57
2022-11-05T21:30:24.153Z,10.85
2022-11-05T21:32:53.591Z,11.70
2022-11-05T21:35:21.228Z,11.68
2022-11-05T21:37:50.523Z,12.70
2022-11-05T21:40:18.149Z,13.23
2022-11-05T21:42:46.547Z,12.63
2022-11-05T21:45:14.121Z,11.98
2022-11-05T21:47:42.196Z,12.57
2022-11-05T21:50:10.667Z,11.50
2022-11-05T21:52:57.094Z,12.27
2022-11-05T21:55:43.282Z,17.23
2022-11-05T21:58:37.629Z,15.63
2022-11-05T22:01:05.497Z,14.02
2022-11-05T22:03:33.337Z,12.05
2022-11-05T22:06:00.941Z,11.70
2022-11-05T22:08:29.326Z,11.80
2022-11-05T22:13:24.458Z,8.02
2022-11-05T22:15:56.298Z,7.00
2022-11-05T22:18:24.117Z,5.45
2022-11-05T22:20:51.664Z,5.50
2022-11-05T22:23:19.450Z,4.50
2022-11-05T22:25:46.921Z,5.60
2022-11-05T22:28:14.732Z,5.05
2022-11-05T22:30:42.451Z,3.50
2022-11-05T22:33:09.973Z,2.93
2022-11-05T22:35:39.866Z,3.03
2022-11-05T22:38:08.482Z,2.72
2022-11-05T22:40:38.642Z,3.55
2022-11-05T22:43:07.479Z,9.02
2022-11-05T22:45:36.838Z,9.20
2022-11-05T22:48:06.960Z,7.25
2022-11-05T22:50:34.771Z,7.15
2022-11-05T22:53:03.448Z,5.30
2022-11-05T22:55:30.985Z,6.30
2022-11-05T22:57:58.630Z,8.13
2022-11-05T23:00:37.718Z,9.55
2022-11-05T23:03:05.836Z,6.50
2022-11-05T23:05:33.410Z,7.90
2022-11-05T23:08:19.260Z,5.93
2022-11-05T23:11:05.451Z,5.32
2022-11-05T23:13:33.402Z,4.88
2022-11-05T23:16:23.970Z,3.65
2022-11-05T23:19:09.825Z,4.20
2022-11-05T23:21:56.288Z,4.32
2022-11-05T23:24:24.252Z,3.28
2022-11-05T23:26:51.934Z,3.38
2022-11-05T23:29:27.832Z,2.95
2022-11-05T23:32:14.708Z,3.28
2022-11-05T23:34:42.611Z,3.40
2022-11-05T23:37:28.973Z,3.53
2022-11-05T23:39:57.126Z,2.80
2022-11-05T23:42:43.533Z,2.70
2022-11-05T23:45:31.872Z,2.30
2022-11-05T23:48:17.110Z,2.38
2022-11-05T23:51:09.864Z,2.72
2022-11-05T23:53:40.724Z,2.83
2022-11-05T23:56:13.185Z,2.40
2022-11-05T23:58:42.591Z,2.33
